Time;durP1;ratioP1;P1;durP2;ratioP2;P2;SDS_P1;SDS_P2;PMS_P1;PMS_P2;Temp;Humidity;BMP_temperature;BMP_pressure;BME280_temperature;BME280_humidity;BME280_pressure;Samples;Min_cycle;Max_cycle;Signal;HPM_P1;HPM_P2
2021/06/09 00:01:08;;;;;;;2.90;2.80;;;13.70;99.90;;;;;;5028455;28;20441;-74
2021/06/09 00:03:33;;;;;;;2.13;2.03;;;13.70;99.90;;;;;;5025031;28;20627;-74
2021/06/09 00:05:59;;;;;;;2.00;1.90;;;13.70;99.90;;;;;;5025393;28;20216;-74
2021/06/09 00:08:25;;;;;;;1.90;1.80;;;13.60;99.90;;;;;;5028444;28;21543;-74
2021/06/09 00:10:55;;;;;;;2.10;2.00;;;13.60;99.90;;;;;;5028823;28;20174;-74
2021/06/09 00:13:23;;;;;;;2.63;2.43;;;13.60;99.90;;;;;;5027762;28;20181;-74
2021/06/09 00:15:49;;;;;;;2.03;1.93;;;13.50;99.90;;;;;;5029282;28;20451;-74
2021/06/09 00:18:15;;;;;;;2.87;2.67;;;13.50;99.90;;;;;;5026497;28;20437;-75
2021/06/09 00:20:40;;;;;;;2.60;2.40;;;13.40;99.90;;;;;;5031617;28;20436;-74
2021/06/09 00:23:06;;;;;;;2.50;2.40;;;13.30;99.90;;;;;;5028363;28;20188;-74
2021/06/09 00:25:32;;;;;;;3.87;2.43;;;13.30;99.90;;;;;;5028821;28;20216;-74
2021/06/09 00:27:58;;;;;;;2.50;2.40;;;13.30;99.90;;;;;;5021710;28;20178;-74
2021/06/09 00:30:34;;;;;;;2.40;2.30;;;13.30;99.90;;;;;;5028305;28;20645;-74
2021/06/09 00:33:01;;;;;;;3.40;2.23;;;13.30;99.90;;;;;;5025058;28;20668;-74
2021/06/09 00:35:28;;;;;;;2.33;2.23;;;13.20;99.90;;;;;;5024790;28;20464;-74
2021/06/09 00:37:53;;;;;;;2.33;2.20;;;13.20;99.90;;;;;;5026754;28;20436;-74
2021/06/09 00:40:19;;;;;;;2.60;2.40;;;13.20;99.90;;;;;;5028736;28;20788;-74
2021/06/09 00:43:07;;;;;;;2.70;2.20;;;13.20;99.90;;;;;;5025039;28;20772;-74
2021/06/09 00:45:34;;;;;;;2.67;2.47;;;13.20;99.90;;;;;;5017583;28;20533;-73
2021/06/09 00:48:00;;;;;;;2.20;1.97;;;13.10;99.90;;;;;;5022712;28;20950;-74
2021/06/09 00:50:26;;;;;;;3.23;2.43;;;13.10;99.90;;;;;;5026181;28;20578;-74
2021/06/09 00:52:51;;;;;;;2.27;2.17;;;13.10;99.90;;;;;;5027292;28;20775;-74
2021/06/09 00:55:17;;;;;;;2.70;2.30;;;13.00;99.90;;;;;;5029321;28;20177;-74
2021/06/09 00:57:44;;;;;;;2.90;2.70;;;13.00;99.90;;;;;;5025434;28;20268;-74
2021/06/09 01:00:11;;;;;;;2.50;2.17;;;12.90;99.90;;;;;;5029813;28;20219;-74
2021/06/09 01:02:37;;;;;;;2.90;2.70;;;12.80;99.90;;;;;;5025162;28;20789;-74
2021/06/09 01:05:04;;;;;;;2.50;2.27;;;12.80;99.90;;;;;;5026554;28;20498;-74
2021/06/09 01:07:31;;;;;;;2.60;2.40;;;12.70;99.90;;;;;;5026326;28;20225;-74
2021/06/09 01:09:57;;;;;;;2.57;2.47;;;12.70;99.90;;;;;;5031076;28;20446;-74
2021/06/09 01:12:23;;;;;;;2.07;1.97;;;12.70;99.90;;;;;;5025083;28;20429;-74
2021/06/09 01:14:48;;;;;;;2.03;1.93;;;12.70;99.90;;;;;;5026532;28;20433;-74
2021/06/09 01:17:15;;;;;;;2.30;2.20;;;12.60;99.90;;;;;;5027055;28;20506;-74
2021/06/09 01:19:41;;;;;;;1.80;1.70;;;12.60;99.90;;;;;;5027972;28;20203;-74
2021/06/09 01:22:06;;;;;;;2.43;2.33;;;12.60;99.90;;;;;;5025330;28;20435;-74
2021/06/09 01:24:32;;;;;;;2.13;2.03;;;12.60;99.90;;;;;;5014623;28;20194;-74
2021/06/09 01:26:58;;;;;;;20.27;4.27;;;12.60;99.90;;;;;;5023744;28;20189;-74
2021/06/09 01:29:25;;;;;;;2.60;2.40;;;12.50;99.90;;;;;;5026077;28;20182;-74
2021/06/09 01:31:52;;;;;;;3.07;2.30;;;12.40;99.90;;;;;;5025771;28;20197;-74
2021/06/09 01:34:17;;;;;;;2.23;2.03;;;12.30;99.90;;;;;;5026070;28;20877;-74
2021/06/09 01:36:43;;;;;;;2.50;2.33;;;12.30;99.90;;;;;;5026722;28;20515;-74
2021/06/09 01:39:10;;;;;;;3.37;2.20;;;12.30;99.90;;;;;;5027504;28;20312;-74
2021/06/09 01:41:40;;;;;;;2.47;2.27;;;12.30;99.90;;;;;;5025258;28;20553;-74
2021/06/09 01:44:06;;;;;;;2.00;1.90;;;12.30;99.90;;;;;;5028674;28;20744;-75
2021/06/09 01:46:32;;;;;;;2.30;2.20;;;12.30;99.90;;;;;;5026511;28;20470;-74
2021/06/09 01:48:57;;;;;;;2.57;2.37;;;12.30;99.90;;;;;;5027842;28;20221;-73
2021/06/09 01:51:24;;;;;;;2.30;2.10;;;12.20;99.90;;;;;;5030734;28;20178;-74
2021/06/09 01:53:49;;;;;;;3.00;2.80;;;12.20;99.90;;;;;;5027617;28;20240;-74
2021/06/09 01:56:16;;;;;;;2.57;2.03;;;12.20;99.90;;;;;;5029418;28;20471;-74
2021/06/09 01:58:41;;;;;;;2.23;2.13;;;12.10;99.90;;;;;;5028525;28;20196;-74
2021/06/09 02:01:07;;;;;;;2.27;2.17;;;12.10;99.90;;;;;;5028251;28;20467;-73
2021/06/09 02:03:33;;;;;;;2.40;2.30;;;12.10;99.90;;;;;;5029060;28;20189;-74
2021/06/09 02:05:59;;;;;;;2.20;2.10;;;12.00;99.90;;;;;;5007715;28;20479;-74
2021/06/09 02:08:25;;;;;;;2.67;2.47;;;12.00;99.90;;;;;;5020270;28;20264;-74
2021/06/09 02:10:51;;;;;;;3.30;3.00;;;12.00;99.90;;;;;;5028308;28;20738;-74
2021/06/09 02:13:18;;;;;;;2.60;2.40;;;12.00;99.90;;;;;;5031431;28;20506;-74
2021/06/09 02:15:51;;;;;;;2.67;2.47;;;12.00;99.90;;;;;;5033753;28;20192;-74
2021/06/09 02:18:22;;;;;;;2.40;2.30;;;12.00;99.90;;;;;;5030285;28;20818;-74
2021/06/09 02:20:56;;;;;;;2.57;2.47;;;11.90;99.90;;;;;;5032943;28;20502;-74
2021/06/09 02:23:32;;;;;;;2.20;2.10;;;11.90;99.90;;;;;;5031389;28;20479;-74
2021/06/09 02:25:59;;;;;;;1.70;1.60;;;11.80;99.90;;;;;;5032252;28;20456;-74
2021/06/09 02:28:28;;;;;;;7.33;2.40;;;11.80;99.90;;;;;;5033761;28;20896;-74
2021/06/09 02:30:54;;;;;;;4.50;2.47;;;11.80;99.90;;;;;;5028308;28;20433;-73
2021/06/09 02:33:21;;;;;;;2.57;2.47;;;11.80;99.90;;;;;;5025081;28;20503;-74
2021/06/09 02:35:48;;;;;;;2.27;2.17;;;11.80;99.90;;;;;;5024137;28;20428;-74
2021/06/09 02:38:15;;;;;;;2.13;2.03;;;11.70;99.90;;;;;;5031583;28;20502;-73
2021/06/09 02:40:45;;;;;;;3.33;2.50;;;11.70;99.90;;;;;;5032551;28;20441;-74
2021/06/09 02:43:11;;;;;;;2.73;2.53;;;11.70;99.90;;;;;;5029953;28;20845;-74
2021/06/09 02:45:37;;;;;;;2.30;2.20;;;11.70;99.90;;;;;;5030140;28;20466;-74
2021/06/09 02:48:10;;;;;;;2.10;1.90;;;11.60;99.90;;;;;;5028901;28;20519;-74
2021/06/09 02:50:36;;;;;;;2.13;2.03;;;11.60;99.90;;;;;;5026995;28;20516;-74
2021/06/09 02:53:16;;;;;;;2.27;2.17;;;11.60;99.90;;;;;;5029263;28;20435;-74
2021/06/09 02:56:10;;;;;;;2.70;2.50;;;11.60;99.90;;;;;;5031043;28;20424;-74
2021/06/09 02:58:47;;;;;;;2.67;2.57;;;11.50;99.90;;;;;;5030286;28;20558;-74
2021/06/09 03:01:33;;;;;;;2.40;2.20;;;11.60;99.90;;;;;;5026833;28;20436;-74
2021/06/09 03:04:14;;;;;;;2.00;1.90;;;11.50;99.90;;;;;;5032539;28;20510;-74
2021/06/09 03:06:55;;;;;;;2.23;2.13;;;11.50;99.90;;;;;;5030678;28;20482;-74
2021/06/09 03:09:29;;;;;;;2.27;2.07;;;11.40;99.90;;;;;;5032434;28;20435;-74
2021/06/09 03:12:10;;;;;;;2.00;1.90;;;11.40;99.90;;;;;;5027029;28;20423;-74
2021/06/09 03:17:38;;;;;;;2.27;2.17;;;11.30;99.90;;;;;;5029378;28;20451;-76
2021/06/09 03:20:17;;;;;;;2.10;2.00;;;11.30;99.90;;;;;;5030028;28;20431;-74
2021/06/09 03:23:21;;;;;;;2.27;2.07;;;11.40;99.90;;;;;;5028622;28;20789;-74
2021/06/09 03:25:56;;;;;;;2.10;2.00;;;11.40;99.90;;;;;;4983351;28;20468;-74
2021/06/09 03:28:31;;;;;;;2.90;2.10;;;11.40;99.90;;;;;;5031664;28;20428;-74
2021/06/09 03:31:01;;;;;;;2.33;2.13;;;11.40;99.90;;;;;;5029413;28;20498;-74
2021/06/09 03:33:32;;;;;;;2.30;2.20;;;11.30;99.90;;;;;;5028270;28;20439;-74
2021/06/09 03:36:26;;;;;;;2.50;2.20;;;11.30;99.90;;;;;;5028027;28;20439;-74
2021/06/09 03:39:14;;;;;;;1.73;1.63;;;11.30;99.90;;;;;;5027914;28;20448;-74
2021/06/09 03:41:53;;;;;;;2.97;2.77;;;11.30;99.90;;;;;;5027787;28;20448;-74
2021/06/09 03:44:42;;;;;;;1.80;1.70;;;11.40;99.90;;;;;;5032464;28;20443;-74
2021/06/09 03:47:08;;;;;;;2.17;2.07;;;11.40;99.90;;;;;;5028579;28;20443;-74
2021/06/09 03:49:36;;;;;;;2.50;2.40;;;11.50;99.90;;;;;;5025576;28;20810;-74
2021/06/09 03:52:02;;;;;;;2.03;1.93;;;11.60;99.90;;;;;;5026825;28;20428;-74
2021/06/09 03:54:32;;;;;;;1.80;1.70;;;11.60;99.90;;;;;;5032727;28;20913;-74
2021/06/09 03:57:00;;;;;;;2.83;2.63;;;11.60;99.90;;;;;;5028118;28;20494;-74
2021/06/09 03:59:26;;;;;;;2.17;2.03;;;11.70;99.90;;;;;;5029673;28;21634;-74
2021/06/09 04:01:54;;;;;;;2.87;2.67;;;11.70;99.90;;;;;;5028497;28;20432;-74
2021/06/09 04:04:21;;;;;;;2.27;2.13;;;11.70;99.90;;;;;;5023774;28;20520;-76
2021/06/09 04:06:50;;;;;;;2.30;2.20;;;11.80;99.90;;;;;;5030588;28;20471;-76
2021/06/09 04:09:22;;;;;;;2.07;1.90;;;11.80;99.90;;;;;;5028430;28;20739;-76
2021/06/09 04:11:57;;;;;;;2.37;2.27;;;11.80;99.90;;;;;;5029127;28;20435;-76
2021/06/09 04:14:26;;;;;;;2.33;2.23;;;11.90;99.90;;;;;;5029572;28;20428;-76
2021/06/09 04:16:55;;;;;;;2.17;2.07;;;11.90;99.90;;;;;;5024148;28;20545;-76
2021/06/09 04:19:23;;;;;;;2.17;2.07;;;12.00;99.90;;;;;;5030076;28;20420;-76
2021/06/09 04:21:51;;;;;;;2.90;2.00;;;12.00;99.90;;;;;;5028494;28;20482;-76
2021/06/09 04:24:16;;;;;;;2.40;2.30;;;12.00;99.90;;;;;;5027409;28;20440;-76
2021/06/09 04:26:43;;;;;;;3.67;1.63;;;12.10;99.90;;;;;;5027040;28;20538;-76
2021/06/09 04:29:10;;;;;;;2.10;2.00;;;12.10;99.90;;;;;;5027098;28;20232;-76
2021/06/09 04:31:37;;;;;;;2.03;1.93;;;12.20;99.90;;;;;;5019521;28;20447;-76
2021/06/09 04:34:03;;;;;;;2.13;2.03;;;12.20;99.90;;;;;;5024234;28;20531;-76
2021/06/09 04:36:29;;;;;;;2.20;2.03;;;12.30;99.90;;;;;;5021784;28;20450;-75
2021/06/09 04:38:54;;;;;;;2.53;2.33;;;12.30;99.90;;;;;;5009869;28;20746;-75
2021/06/09 04:41:21;;;;;;;2.70;2.30;;;12.40;99.90;;;;;;5021540;28;20262;-76
2021/06/09 04:43:47;;;;;;;2.10;2.00;;;12.40;99.90;;;;;;5025629;28;20432;-75
2021/06/09 04:46:18;;;;;;;2.60;2.50;;;12.50;99.90;;;;;;5020800;28;20456;-76
2021/06/09 04:49:02;;;;;;;2.20;2.07;;;12.50;99.90;;;;;;5021709;28;20464;-76
2021/06/09 04:51:32;;;;;;;2.00;1.90;;;12.60;99.90;;;;;;5018852;28;20527;-76
2021/06/09 04:53:59;;;;;;;2.40;2.20;;;12.60;99.90;;;;;;5023915;28;20495;-76
2021/06/09 04:56:29;;;;;;;1.87;1.77;;;12.70;99.90;;;;;;5026917;28;20514;-76
2021/06/09 04:58:55;;;;;;;1.97;1.87;;;12.80;99.90;;;;;;5021394;28;20461;-76
2021/06/09 05:01:21;;;;;;;2.33;2.23;;;12.80;99.90;;;;;;5019882;28;20595;-75
2021/06/09 05:03:46;;;;;;;7.90;4.27;;;12.90;99.90;;;;;;5010235;28;20446;-75
2021/06/09 05:06:12;;;;;;;2.23;2.13;;;12.90;99.90;;;;;;5020169;28;20217;-76
2021/06/09 05:08:38;;;;;;;2.30;2.00;;;13.00;99.90;;;;;;5025783;28;20182;-76
2021/06/09 05:11:08;;;;;;;2.30;2.20;;;13.10;99.90;;;;;;5028113;28;20611;-75
2021/06/09 05:13:35;;;;;;;2.23;1.90;;;13.20;99.90;;;;;;5027963;28;20257;-76
2021/06/09 05:16:05;;;;;;;1.90;1.80;;;13.20;99.90;;;;;;5026713;28;20432;-75
2021/06/09 05:18:41;;;;;;;2.13;1.70;;;13.30;99.90;;;;;;5023912;28;20439;-75
2021/06/09 05:21:08;;;;;;;2.90;2.10;;;13.40;99.90;;;;;;5028716;28;20519;-74
2021/06/09 05:23:37;;;;;;;2.20;2.00;;;13.50;99.90;;;;;;5030714;28;20444;-76
2021/06/09 05:26:04;;;;;;;1.87;1.77;;;13.60;99.90;;;;;;5024979;28;20460;-75
2021/06/09 05:28:34;;;;;;;2.40;2.30;;;13.70;99.90;;;;;;5030092;28;20443;-75
2021/06/09 05:31:01;;;;;;;2.57;1.90;;;13.80;99.90;;;;;;5028795;28;20506;-75
2021/06/09 05:33:29;;;;;;;2.63;2.47;;;13.90;99.90;;;;;;5026181;28;20474;-75
2021/06/09 05:35:57;;;;;;;2.40;2.30;;;14.00;99.90;;;;;;5030247;28;20742;-75
2021/06/09 05:38:23;;;;;;;2.50;2.07;;;14.20;99.90;;;;;;5018674;28;20452;-75
2021/06/09 05:40:50;;;;;;;2.40;2.30;;;14.30;99.90;;;;;;5030109;28;20825;-76
2021/06/09 05:43:21;;;;;;;2.40;2.20;;;14.40;99.90;;;;;;5030551;28;20437;-76
2021/06/09 05:45:48;;;;;;;3.00;2.70;;;14.60;99.90;;;;;;5017738;28;20452;-76
2021/06/09 05:48:15;;;;;;;1.80;1.70;;;14.70;99.90;;;;;;5034554;28;20433;-75
2021/06/09 05:50:41;;;;;;;2.27;2.17;;;14.80;99.90;;;;;;5033017;28;20436;-76
2021/06/09 05:53:06;;;;;;;2.33;2.00;;;14.90;99.90;;;;;;5030315;28;20515;-76
2021/06/09 05:55:34;;;;;;;1.83;1.73;;;15.00;99.90;;;;;;5032385;28;20444;-76
2021/06/09 05:58:02;;;;;;;1.50;1.50;;;15.20;99.90;;;;;;5037979;28;20505;-76
2021/06/09 06:00:29;;;;;;;1.87;1.77;;;15.20;99.90;;;;;;5002085;28;20444;-77
2021/06/09 06:02:55;;;;;;;1.60;1.50;;;15.30;99.90;;;;;;5031366;28;20448;-77
2021/06/09 06:05:22;;;;;;;1.80;1.70;;;15.40;99.90;;;;;;5028605;28;20475;-77
2021/06/09 06:07:47;;;;;;;5.93;1.60;;;15.50;99.90;;;;;;5034503;28;20447;-77
2021/06/09 06:10:14;;;;;;;1.47;1.37;;;15.70;99.90;;;;;;5034311;28;20518;-77
2021/06/09 06:12:41;;;;;;;1.30;1.30;;;15.70;99.90;;;;;;5031166;28;20178;-77
2021/06/09 06:15:10;;;;;;;1.87;1.77;;;15.80;99.90;;;;;;5035297;28;20800;-77
2021/06/09 06:17:41;;;;;;;1.40;1.40;;;15.90;99.90;;;;;;5021943;28;20468;-77
2021/06/09 06:20:14;;;;;;;1.83;1.70;;;16.10;99.90;;;;;;5034884;28;20471;-77
2021/06/09 06:22:42;;;;;;;2.00;1.37;;;16.20;99.90;;;;;;5030411;28;20498;-77
2021/06/09 06:25:08;;;;;;;1.43;1.43;;;16.40;99.90;;;;;;5034754;28;20496;-77
2021/06/09 06:27:34;;;;;;;1.53;1.43;;;16.50;99.90;;;;;;5032094;28;20453;-78
2021/06/09 06:30:02;;;;;;;1.27;1.27;;;16.60;99.90;;;;;;5025027;28;20451;-77
2021/06/09 06:32:29;;;;;;;1.50;1.40;;;16.70;99.90;;;;;;5024496;28;20449;-77
2021/06/09 06:34:56;;;;;;;1.80;1.70;;;16.90;99.90;;;;;;5031845;28;20960;-77
2021/06/09 06:37:24;;;;;;;1.80;1.60;;;17.00;99.90;;;;;;5027066;28;20429;-77
2021/06/09 06:39:50;;;;;;;1.40;1.30;;;17.10;99.90;;;;;;5029232;28;20801;-77
2021/06/09 06:42:19;;;;;;;1.60;1.50;;;17.10;99.90;;;;;;5026608;28;20502;-77
2021/06/09 06:44:45;;;;;;;1.90;1.80;;;17.20;99.90;;;;;;5032976;28;20472;-77
2021/06/09 06:47:12;;;;;;;1.73;1.63;;;17.40;99.90;;;;;;5031524;28;20470;-77
2021/06/09 06:49:38;;;;;;;1.80;1.70;;;17.40;99.90;;;;;;5031965;28;20432;-77
2021/06/09 06:52:05;;;;;;;2.10;2.00;;;17.60;99.90;;;;;;5030046;28;20436;-77
2021/06/09 06:54:31;;;;;;;2.10;2.00;;;17.70;99.90;;;;;;5031576;28;20972;-77
2021/06/09 06:56:57;;;;;;;2.57;2.37;;;17.70;99.90;;;;;;5028975;28;20573;-77
2021/06/09 06:59:24;;;;;;;1.87;1.77;;;17.80;99.90;;;;;;5029388;28;20178;-77
2021/06/09 07:01:50;;;;;;;2.00;1.90;;;17.90;99.90;;;;;;5029125;28;20437;-77
2021/06/09 07:04:18;;;;;;;2.13;2.03;;;18.10;99.90;;;;;;5029713;28;20451;-77
2021/06/09 07:06:45;;;;;;;2.70;2.50;;;18.20;99.90;;;;;;5030259;28;20474;-77
2021/06/09 07:09:12;;;;;;;2.10;2.00;;;18.30;99.90;;;;;;5031078;28;20799;-77
2021/06/09 07:11:39;;;;;;;3.10;1.90;;;18.50;99.90;;;;;;5029386;28;20433;-77
2021/06/09 07:14:06;;;;;;;2.00;1.90;;;18.50;99.90;;;;;;5027201;28;20909;-77
2021/06/09 07:16:33;;;;;;;2.80;2.10;;;18.60;99.90;;;;;;5029864;28;20519;-77
2021/06/09 07:19:00;;;;;;;2.27;2.17;;;18.60;99.90;;;;;;5027962;28;20440;-77
2021/06/09 07:21:26;;;;;;;2.33;2.23;;;18.80;99.90;;;;;;5022355;28;20437;-77
2021/06/09 07:23:53;;;;;;;2.60;2.40;;;18.90;99.90;;;;;;5027703;28;20436;-77
2021/06/09 07:26:20;;;;;;;2.30;2.20;;;19.00;99.90;;;;;;5027859;28;20225;-77
2021/06/09 07:28:49;;;;;;;2.80;2.30;;;19.10;99.90;;;;;;5017822;28;20765;-77
2021/06/09 07:31:18;;;;;;;1.80;1.70;;;19.10;99.90;;;;;;5024705;28;20436;-76
2021/06/09 07:33:47;;;;;;;1.93;1.83;;;19.20;99.90;;;;;;5028919;28;20437;-75
2021/06/09 07:36:15;;;;;;;2.10;2.00;;;19.30;99.90;;;;;;5028301;28;20433;-76
2021/06/09 07:38:49;;;;;;;1.80;1.70;;;19.40;99.90;;;;;;5026253;28;20444;-75
2021/06/09 07:41:17;;;;;;;1.80;1.70;;;19.50;99.90;;;;;;5031280;28;20455;-75
2021/06/09 07:43:48;;;;;;;3.30;1.60;;;19.70;99.90;;;;;;5030382;28;20486;-76
2021/06/09 07:46:19;;;;;;;2.20;2.10;;;19.80;99.90;;;;;;5028491;28;20794;-75
2021/06/09 07:48:48;;;;;;;3.03;1.87;;;19.90;99.90;;;;;;5031059;28;20420;-76
2021/06/09 07:51:15;;;;;;;1.97;1.87;;;20.10;99.90;;;;;;5028151;28;20428;-79
2021/06/09 07:53:41;;;;;;;2.00;1.70;;;20.30;99.90;;;;;;5031994;28;20463;-79
2021/06/09 07:56:12;;;;;;;1.77;1.67;;;20.50;99.90;;;;;;5031007;28;20424;-79
2021/06/09 07:58:39;;;;;;;1.60;1.50;;;20.80;99.90;;;;;;5032536;28;20166;-79
2021/06/09 08:01:05;;;;;;;1.50;1.40;;;21.10;99.90;;;;;;5026872;28;20496;-78
2021/06/09 08:03:33;;;;;;;1.37;1.37;;;21.30;99.90;;;;;;5029957;28;20925;-78
2021/06/09 08:06:01;;;;;;;1.83;1.40;;;21.50;99.90;;;;;;5029805;28;20603;-77
2021/06/09 08:08:28;;;;;;;1.30;1.20;;;21.70;99.90;;;;;;5031705;28;20443;-77
2021/06/09 08:10:54;;;;;;;3.23;1.83;;;21.80;99.90;;;;;;5029978;28;20431;-76
2021/06/09 08:13:20;;;;;;;1.43;1.43;;;21.90;99.90;;;;;;5029155;28;20905;-77
2021/06/09 08:15:46;;;;;;;1.17;1.17;;;21.90;99.90;;;;;;5029261;28;20448;-78
2021/06/09 08:18:12;;;;;;;1.50;1.50;;;22.10;99.90;;;;;;5032469;28;20185;-77
2021/06/09 08:21:14;;;;;;;1.37;1.27;;;22.20;99.90;;;;;;5031610;28;20432;-77
2021/06/09 08:23:42;;;;;;;1.50;1.40;;;22.30;99.90;;;;;;5030051;28;20438;-77
2021/06/09 08:26:10;;;;;;;1.33;1.23;;;22.50;99.90;;;;;;5030766;28;20448;-76
2021/06/09 08:28:37;;;;;;;1.37;1.27;;;22.40;99.90;;;;;;5022434;28;20436;-77
2021/06/09 08:31:05;;;;;;;1.10;1.10;;;22.50;99.90;;;;;;5021923;28;20425;-76
2021/06/09 08:33:32;;;;;;;1.27;1.17;;;22.60;99.90;;;;;;5029997;28;20921;-77
2021/06/09 08:35:57;;;;;;;1.20;1.10;;;22.60;99.90;;;;;;5032187;28;20421;-76
2021/06/09 08:38:24;;;;;;;1.40;1.30;;;22.60;99.90;;;;;;5021357;28;20424;-75
2021/06/09 08:40:50;;;;;;;2.10;1.67;;;22.70;99.90;;;;;;5031337;28;20190;-75
2021/06/09 08:43:18;;;;;;;1.43;1.33;;;22.70;99.90;;;;;;5029961;28;20520;-74
2021/06/09 08:45:47;;;;;;;2.30;1.40;;;22.80;99.90;;;;;;5024345;28;20460;-75
2021/06/09 08:48:13;;;;;;;1.70;1.60;;;22.90;99.90;;;;;;5030225;28;20898;-73
2021/06/09 08:50:40;;;;;;;1.43;1.33;;;23.00;99.90;;;;;;5031423;28;20436;-74
2021/06/09 08:53:06;;;;;;;1.00;1.00;;;23.30;99.90;;;;;;5027805;28;20424;-74
2021/06/09 08:55:33;;;;;;;1.37;1.27;;;23.40;99.90;;;;;;5029838;28;20433;-75
2021/06/09 08:58:02;;;;;;;1.40;1.30;;;23.40;99.90;;;;;;5027554;28;20435;-74
2021/06/09 09:00:27;;;;;;;1.17;1.07;;;23.50;99.90;;;;;;5025637;28;20441;-74
2021/06/09 09:02:54;;;;;;;1.10;1.10;;;23.70;99.90;;;;;;5029589;28;20454;-75
2021/06/09 09:05:20;;;;;;;1.20;1.10;;;23.90;99.90;;;;;;5029396;28;20201;-76
2021/06/09 09:07:47;;;;;;;2.33;1.20;;;24.00;99.90;;;;;;5027817;28;20471;-75
2021/06/09 09:10:15;;;;;;;1.40;1.30;;;24.20;99.90;;;;;;5027731;28;20523;-75
2021/06/09 09:12:41;;;;;;;1.47;1.47;;;24.30;99.90;;;;;;5025407;28;20432;-75
2021/06/09 09:15:07;;;;;;;1.53;1.43;;;24.30;99.90;;;;;;5027974;28;20436;-75
2021/06/09 09:17:52;;;;;;;1.90;1.80;;;24.20;99.90;;;;;;5029446;28;20718;-75
2021/06/09 09:20:24;;;;;;;2.10;1.90;;;24.10;99.90;;;;;;5026705;28;20428;-75
2021/06/09 09:22:52;;;;;;;1.73;1.63;;;23.90;99.90;;;;;;5025152;28;20439;-76
2021/06/09 09:25:20;;;;;;;1.27;1.27;;;23.80;99.90;;;;;;5025796;28;20518;-76
2021/06/09 09:28:04;;;;;;;1.50;1.40;;;23.90;99.90;;;;;;5028484;28;20432;-76
2021/06/09 09:30:34;;;;;;;1.37;1.30;;;24.10;99.90;;;;;;5027268;28;21002;-75
2021/06/09 09:33:09;;;;;;;1.40;1.40;;;24.30;99.90;;;;;;5017508;28;20823;-76
2021/06/09 09:35:36;;;;;;;1.33;1.23;;;24.20;99.90;;;;;;5025465;28;20538;-75
2021/06/09 09:38:16;;;;;;;1.20;1.20;;;24.10;99.90;;;;;;5027400;28;20910;-75
2021/06/09 09:41:18;;;;;;;1.60;1.50;;;24.00;99.90;;;;;;5005401;28;20760;-75
2021/06/09 09:43:47;;;;;;;2.67;1.77;;;24.10;99.90;;;;;;5025756;28;20916;-75
2021/06/09 09:46:16;;;;;;;1.60;1.30;;;24.20;99.90;;;;;;5030129;28;20784;-75
2021/06/09 09:49:00;;;;;;;3.20;1.20;;;24.40;99.90;;;;;;5027999;28;20429;-75
2021/06/09 09:51:29;;;;;;;1.40;1.30;;;24.50;99.90;;;;;;5028514;28;20821;-75
2021/06/09 09:53:56;;;;;;;2.23;1.60;;;24.60;99.90;;;;;;5029295;28;20432;-75
2021/06/09 09:56:25;;;;;;;1.57;1.47;;;24.40;99.90;;;;;;5027260;28;20451;-76
2021/06/09 09:58:58;;;;;;;1.60;1.50;;;24.30;99.90;;;;;;5028182;28;20510;-76
2021/06/09 10:01:26;;;;;;;1.37;1.27;;;24.20;99.90;;;;;;5002946;28;20535;-75
2021/06/09 10:03:57;;;;;;;1.20;1.20;;;24.30;99.90;;;;;;5026660;28;20780;-75
2021/06/09 10:06:27;;;;;;;1.57;1.47;;;24.50;99.90;;;;;;5027444;28;20802;-75
2021/06/09 10:08:56;;;;;;;1.13;1.13;;;24.60;99.90;;;;;;5031836;28;20421;-75
2021/06/09 10:11:23;;;;;;;1.33;1.33;;;24.60;99.90;;;;;;5032039;28;20455;-75
2021/06/09 10:13:49;;;;;;;1.43;1.33;;;24.80;99.90;;;;;;5031282;28;20820;-75
2021/06/09 10:16:22;;;;;;;1.40;1.30;;;25.10;99.90;;;;;;5028715;28;20450;-75
2021/06/09 10:19:09;;;;;;;2.10;1.20;;;25.40;99.90;;;;;;5025883;28;20303;-75
2021/06/09 10:21:45;;;;;;;1.37;1.37;;;25.60;99.60;;;;;;5029992;28;20578;-75
2021/06/09 10:24:11;;;;;;;1.43;1.33;;;25.60;98.50;;;;;;5032093;28;20436;-76
2021/06/09 10:26:39;;;;;;;1.33;1.33;;;25.60;98.10;;;;;;5027053;28;20460;-75
2021/06/09 10:29:06;;;;;;;1.40;1.30;;;25.50;99.00;;;;;;5030848;28;20440;-75
2021/06/09 10:31:35;;;;;;;1.40;1.30;;;25.70;99.10;;;;;;5019984;28;20440;-75
2021/06/09 10:34:02;;;;;;;1.57;1.47;;;25.80;99.40;;;;;;5022953;28;20506;-75
2021/06/09 10:36:28;;;;;;;2.83;1.50;;;25.80;99.10;;;;;;5030898;28;20462;-75
2021/06/09 10:38:55;;;;;;;1.67;1.63;;;25.80;99.60;;;;;;5030321;28;20441;-75
2021/06/09 10:41:25;;;;;;;1.80;1.70;;;25.80;98.90;;;;;;5028783;28;20801;-75
2021/06/09 10:43:54;;;;;;;1.30;1.30;;;25.90;98.20;;;;;;5030855;28;20589;-74
2021/06/09 10:46:25;;;;;;;2.10;2.00;;;26.00;98.70;;;;;;5018258;28;20468;-74
2021/06/09 10:48:55;;;;;;;1.90;1.80;;;26.10;99.50;;;;;;5030355;28;20432;-73
2021/06/09 10:51:22;;;;;;;1.80;1.70;;;26.30;98.40;;;;;;5029845;28;20473;-74
2021/06/09 10:53:49;;;;;;;1.73;1.63;;;26.00;97.50;;;;;;5032036;28;20512;-74
2021/06/09 10:56:16;;;;;;;2.10;2.00;;;26.00;99.20;;;;;;5028030;28;20437;-74
2021/06/09 10:58:42;;;;;;;1.50;1.50;;;26.00;99.30;;;;;;5020391;28;20765;-74
2021/06/09 11:01:08;;;;;;;3.20;1.90;;;26.00;99.90;;;;;;5028592;28;20514;-74
2021/06/09 11:03:36;;;;;;;2.50;1.70;;;25.80;98.40;;;;;;5031672;28;20440;-74
2021/06/09 11:06:03;;;;;;;1.70;1.60;;;25.50;98.10;;;;;;5030202;28;20969;-74
2021/06/09 11:08:29;;;;;;;1.97;1.80;;;25.40;99.00;;;;;;5019130;28;20759;-74
2021/06/09 11:10:57;;;;;;;2.10;2.00;;;25.30;99.40;;;;;;5030286;28;20436;-74
2021/06/09 11:13:33;;;;;;;1.90;1.80;;;25.20;99.30;;;;;;5031128;28;20437;-74
2021/06/09 11:16:17;;;;;;;2.40;2.13;;;25.30;99.20;;;;;;5029597;28;20828;-74
2021/06/09 11:18:46;;;;;;;2.90;2.00;;;25.20;99.20;;;;;;5032928;28;20443;-74
2021/06/09 11:21:16;;;;;;;2.10;2.00;;;25.40;99.50;;;;;;5028201;28;20441;-74
2021/06/09 11:23:42;;;;;;;1.90;1.80;;;25.60;99.30;;;;;;5032773;28;20506;-74
2021/06/09 11:26:30;;;;;;;1.93;1.83;;;25.80;99.40;;;;;;5029964;28;20464;-74
2021/06/09 11:28:56;;;;;;;2.13;1.97;;;26.30;98.50;;;;;;5025022;28;20556;-74
2021/06/09 11:31:30;;;;;;;2.00;1.90;;;26.80;98.60;;;;;;5029725;28;20428;-74
2021/06/09 11:34:03;;;;;;;2.63;1.97;;;27.20;99.30;;;;;;5030597;28;20444;-75
2021/06/09 11:36:39;;;;;;;1.50;1.50;;;27.40;98.20;;;;;;5030925;28;20436;-74
2021/06/09 11:39:26;;;;;;;2.13;2.00;;;27.50;97.60;;;;;;5031373;28;20529;-74
2021/06/09 11:41:53;;;;;;;2.43;2.23;;;27.30;96.30;;;;;;5032041;28;20443;-74
2021/06/09 11:44:26;;;;;;;2.57;2.37;;;27.30;96.70;;;;;;5025009;28;20556;-74
2021/06/09 11:46:52;;;;;;;1.80;1.70;;;27.40;98.30;;;;;;5029070;28;20858;-74
2021/06/09 11:49:24;;;;;;;1.90;1.80;;;27.30;96.90;;;;;;5030677;28;20440;-74
2021/06/09 11:52:01;;;;;;;2.10;2.00;;;27.30;97.80;;;;;;5030535;28;20228;-74
2021/06/09 11:54:31;;;;;;;2.17;2.07;;;27.20;96.30;;;;;;5031691;28;20412;-74
2021/06/09 11:57:12;;;;;;;3.73;1.67;;;27.40;97.30;;;;;;5029578;28;20437;-74
2021/06/09 11:59:40;;;;;;;2.37;1.70;;;27.50;97.90;;;;;;5031162;28;20432;-74
2021/06/09 12:02:19;;;;;;;2.50;2.30;;;27.40;97.80;;;;;;5027384;28;20457;-74
2021/06/09 12:04:49;;;;;;;2.63;1.90;;;27.40;99.20;;;;;;5029036;28;20972;-74
2021/06/09 12:07:31;;;;;;;2.10;2.00;;;27.30;97.80;;;;;;5016190;28;20956;-74
2021/06/09 12:10:16;;;;;;;2.70;2.50;;;27.40;97.80;;;;;;5031577;28;20504;-74
2021/06/09 12:12:42;;;;;;;2.90;2.80;;;27.50;96.70;;;;;;5023332;28;20436;-74
2021/06/09 12:15:10;;;;;;;2.30;2.20;;;27.50;96.60;;;;;;5030551;28;20439;-73
2021/06/09 12:17:39;;;;;;;2.37;2.27;;;27.50;96.80;;;;;;5030236;28;20174;-74
2021/06/09 12:20:14;;;;;;;2.53;2.37;;;27.50;96.50;;;;;;5030637;28;20440;-73
2021/06/09 12:22:52;;;;;;;2.50;2.40;;;27.60;97.20;;;;;;5028154;28;21135;-74
2021/06/09 12:25:19;;;;;;;2.20;2.10;;;27.80;95.50;;;;;;5030187;28;20456;-74
2021/06/09 12:28:05;;;;;;;2.40;2.30;;;28.10;96.10;;;;;;5022158;28;20467;-73
2021/06/09 12:30:32;;;;;;;2.50;2.40;;;27.90;95.20;;;;;;5016318;28;20440;-73
2021/06/09 12:32:57;;;;;;;2.87;2.67;;;27.70;96.60;;;;;;5024975;28;20800;-73
2021/06/09 12:35:24;;;;;;;3.07;2.87;;;27.60;96.60;;;;;;5027498;28;20468;-73
2021/06/09 12:37:53;;;;;;;2.70;2.60;;;27.30;96.40;;;;;;5017216;28;20182;-73
2021/06/09 12:40:34;;;;;;;3.13;2.90;;;27.20;97.40;;;;;;5028395;28;20440;-73
2021/06/09 12:43:05;;;;;;;2.60;2.50;;;26.80;96.80;;;;;;5027466;28;20433;-74
2021/06/09 12:45:35;;;;;;;2.43;2.33;;;26.70;97.20;;;;;;5017799;28;20952;-73
2021/06/09 12:48:05;;;;;;;2.37;2.27;;;26.80;98.10;;;;;;5027440;28;20432;-74
2021/06/09 12:50:39;;;;;;;3.47;3.17;;;26.70;97.70;;;;;;5027206;28;20435;-74
2021/06/09 12:53:09;;;;;;;3.13;2.90;;;26.50;97.70;;;;;;5028025;28;20809;-74
2021/06/09 12:55:38;;;;;;;2.60;2.50;;;26.60;97.90;;;;;;5031112;28;20428;-74
2021/06/09 12:58:07;;;;;;;3.10;2.90;;;26.90;98.00;;;;;;5029989;28;20448;-74
2021/06/09 13:00:44;;;;;;;3.87;3.67;;;27.40;98.20;;;;;;5029714;28;20436;-74
2021/06/09 13:03:49;;;;;;;3.00;2.80;;;27.80;96.60;;;;;;5028528;28;20428;-73